createdAt,value
2019-04-30T00:00:38.453Z,19.67
2019-04-30T00:03:18.047Z,17.23
2019-04-30T00:05:49.350Z,17.10
2019-04-30T00:08:16.409Z,15.80
2019-04-30T00:10:45.416Z,21.93
2019-04-30T00:13:17.560Z,14.47
2019-04-30T00:15:47.710Z,20.37
2019-04-30T00:18:15.790Z,20.97
2019-04-30T00:20:46.949Z,13.90
2019-04-30T00:23:18.069Z,13.70
2019-04-30T00:25:47.110Z,16.03
2019-04-30T00:28:16.074Z,18.77
2019-04-30T00:30:47.737Z,16.20
2019-04-30T00:33:22.059Z,18.40
2019-04-30T00:35:49.742Z,16.37
2019-04-30T00:38:17.277Z,16.70
2019-04-30T00:40:46.392Z,19.00
2019-04-30T00:43:15.625Z,14.87
2019-04-30T00:45:57.589Z,17.60
2019-04-30T00:48:30.987Z,15.27
2019-04-30T00:50:57.405Z,16.97
2019-04-30T00:53:26.496Z,16.33
2019-04-30T00:55:59.613Z,17.67
2019-04-30T00:58:30.281Z,16.80
2019-04-30T01:01:08.195Z,20.80
2019-04-30T01:03:39.396Z,18.87
2019-04-30T01:06:09.444Z,16.67
2019-04-30T01:08:38.531Z,15.57
2019-04-30T01:11:09.653Z,15.10
2019-04-30T01:13:38.908Z,14.00
2019-04-30T01:16:09.866Z,18.17
2019-04-30T01:18:39.037Z,18.93
2019-04-30T01:21:11.247Z,16.47
2019-04-30T01:23:43.063Z,17.93
2019-04-30T01:26:09.718Z,19.30
2019-04-30T01:28:38.689Z,21.23
2019-04-30T01:31:09.056Z,17.40
2019-04-30T01:33:39.213Z,17.40
2019-04-30T01:36:09.556Z,18.20
2019-04-30T01:38:40.341Z,21.90
2019-04-30T01:41:09.540Z,16.67
2019-04-30T01:43:38.694Z,17.50
2019-04-30T01:46:12.670Z,16.53
2019-04-30T01:48:39.306Z,20.23
2019-04-30T01:51:08.994Z,16.10
2019-04-30T01:53:38.726Z,16.87
2019-04-30T01:56:26.109Z,22.07
2019-04-30T01:58:56.666Z,23.57
2019-04-30T02:01:33.441Z,21.30
2019-04-30T02:04:02.446Z,20.50
2019-04-30T02:06:31.414Z,21.63
2019-04-30T02:09:00.453Z,15.80
2019-04-30T02:11:29.822Z,15.47
2019-04-30T02:13:59.112Z,13.60
2019-04-30T02:16:28.919Z,18.23
2019-04-30T02:18:59.663Z,15.17
2019-04-30T02:21:30.050Z,15.80
2019-04-30T02:23:59.392Z,13.17
2019-04-30T02:26:28.706Z,14.97
2019-04-30T02:28:59.353Z,12.20
2019-04-30T02:31:30.975Z,13.23
2019-04-30T02:34:06.656Z,12.67
2019-04-30T02:36:40.526Z,17.13
2019-04-30T02:39:11.134Z,14.23
2019-04-30T02:41:41.332Z,11.93
2019-04-30T02:44:11.014Z,14.57
2019-04-30T02:46:41.428Z,11.40
2019-04-30T02:49:10.909Z,14.13
2019-04-30T02:51:40.171Z,16.17
2019-04-30T02:54:10.612Z,16.90
2019-04-30T02:56:40.689Z,15.23
2019-04-30T02:59:10.428Z,15.23
2019-04-30T03:01:40.215Z,14.17
2019-04-30T03:04:10.082Z,16.30
2019-04-30T03:06:40.186Z,18.50
2019-04-30T03:09:10.534Z,17.20
2019-04-30T03:11:40.703Z,16.27
2019-04-30T03:14:10.552Z,17.10
2019-04-30T03:16:53.201Z,18.80
2019-04-30T03:19:41.288Z,17.47
2019-04-30T03:22:14.445Z,21.97
2019-04-30T03:24:43.381Z,21.63
2019-04-30T03:27:12.367Z,19.57
2019-04-30T03:29:41.267Z,19.63
2019-04-30T03:32:13.337Z,19.03
2019-04-30T03:34:42.458Z,18.80
2019-04-30T03:37:11.656Z,19.10
2019-04-30T03:39:40.560Z,16.77
2019-04-30T03:42:10.163Z,17.83
2019-04-30T03:44:39.988Z,18.50
2019-04-30T03:47:10.914Z,21.20
2019-04-30T03:49:40.385Z,22.30
2019-04-30T03:52:12.642Z,16.60
2019-04-30T03:54:40.802Z,20.80
2019-04-30T03:57:10.785Z,21.50
2019-04-30T03:59:40.181Z,23.67
2019-04-30T04:02:12.852Z,19.27
2019-04-30T04:04:43.717Z,19.53
2019-04-30T04:07:20.509Z,23.53
2019-04-30T04:10:06.222Z,18.93
2019-04-30T04:12:35.178Z,19.50
2019-04-30T04:15:05.055Z,22.33
2019-04-30T04:17:33.951Z,20.80
2019-04-30T04:20:02.878Z,27.33
2019-04-30T04:22:31.774Z,20.43
2019-04-30T04:25:00.688Z,21.43
2019-04-30T04:27:30.343Z,20.53
2019-04-30T04:30:01.012Z,21.93
2019-04-30T04:32:31.034Z,20.83
2019-04-30T04:35:00.496Z,24.37
2019-04-30T04:37:30.324Z,21.23
2019-04-30T04:39:59.773Z,18.23
2019-04-30T04:42:29.959Z,18.63
2019-04-30T04:44:59.756Z,21.53
2019-04-30T04:47:30.771Z,20.33
2019-04-30T04:50:00.778Z,19.27
2019-04-30T04:52:31.449Z,18.33
2019-04-30T04:55:00.853Z,17.33
2019-04-30T04:57:30.914Z,19.07
2019-04-30T05:00:06.844Z,19.83
2019-04-30T05:02:44.969Z,23.17
2019-04-30T05:05:13.953Z,18.07
2019-04-30T05:07:42.846Z,29.13
2019-04-30T05:10:12.025Z,20.10
2019-04-30T05:12:40.989Z,19.53
2019-04-30T05:15:10.315Z,19.33
2019-04-30T05:17:39.865Z,19.53
2019-04-30T05:20:10.170Z,23.50
2019-04-30T05:22:39.293Z,23.33
2019-04-30T05:25:09.074Z,24.47
2019-04-30T05:27:39.281Z,21.37
2019-04-30T05:30:12.193Z,23.80
2019-04-30T05:32:40.742Z,21.03
2019-04-30T05:35:09.865Z,21.27
2019-04-30T05:37:38.761Z,20.83
2019-04-30T05:40:09.157Z,20.47
2019-04-30T05:42:38.736Z,23.77
2019-04-30T05:45:09.309Z,20.43
2019-04-30T05:47:39.013Z,19.60
2019-04-30T05:50:09.023Z,21.80
2019-04-30T05:52:39.764Z,18.07
2019-04-30T05:55:09.003Z,23.60
2019-04-30T05:57:47.240Z,19.90
2019-04-30T06:00:09.983Z,24.23
2019-04-30T06:02:39.907Z,24.87
2019-04-30T06:05:09.269Z,23.90
2019-04-30T06:07:39.448Z,20.80
2019-04-30T06:10:13.403Z,20.23
2019-04-30T06:12:52.907Z,20.33
2019-04-30T06:15:26.295Z,22.60
2019-04-30T06:18:00.246Z,26.17
2019-04-30T06:20:26.038Z,21.83
2019-04-30T06:22:55.394Z,20.60
2019-04-30T06:25:32.201Z,25.47
2019-04-30T06:27:58.833Z,20.77
2019-04-30T06:30:29.698Z,20.87
2019-04-30T06:32:59.377Z,23.10
2019-04-30T06:35:29.373Z,24.23
2019-04-30T06:37:59.096Z,20.97
2019-04-30T06:40:29.273Z,19.47
2019-04-30T06:43:00.668Z,19.93
2019-04-30T06:45:30.764Z,19.00
2019-04-30T06:48:00.365Z,21.97
2019-04-30T06:50:29.391Z,20.30
2019-04-30T06:53:01.536Z,26.80
2019-04-30T06:55:30.913Z,20.53
2019-04-30T06:58:11.190Z,19.67
2019-04-30T07:00:39.584Z,19.37
2019-04-30T07:03:09.645Z,23.50
2019-04-30T07:05:39.231Z,23.40
2019-04-30T07:08:36.404Z,24.77
2019-04-30T07:11:15.237Z,19.37
2019-04-30T07:13:45.805Z,20.20
2019-04-30T07:16:14.708Z,22.30
2019-04-30T07:18:45.148Z,22.97
2019-04-30T07:21:14.129Z,20.70
2019-04-30T07:23:43.091Z,17.07
2019-04-30T07:26:13.865Z,18.27
2019-04-30T07:28:47.895Z,20.33
2019-04-30T07:31:14.696Z,21.70
2019-04-30T07:33:43.815Z,20.53
2019-04-30T07:36:12.742Z,20.00
2019-04-30T07:38:51.589Z,18.67
2019-04-30T07:41:12.391Z,21.17
2019-04-30T07:43:41.294Z,17.97
2019-04-30T07:46:10.259Z,20.50
2019-04-30T07:48:40.333Z,19.03
2019-04-30T07:51:10.494Z,19.43
2019-04-30T07:53:40.358Z,19.90
2019-04-30T07:56:24.310Z,25.17
2019-04-30T07:58:41.283Z,21.73
2019-04-30T08:01:10.603Z,22.20
2019-04-30T08:03:41.521Z,19.47
2019-04-30T08:06:10.984Z,17.43
2019-04-30T08:08:40.853Z,17.87
2019-04-30T08:11:22.775Z,17.80
2019-04-30T08:13:41.309Z,18.13
2019-04-30T08:16:10.812Z,17.80
2019-04-30T08:18:39.706Z,18.07
2019-04-30T08:21:09.608Z,15.67
2019-04-30T08:23:39.736Z,19.07
2019-04-30T08:26:09.017Z,15.90
2019-04-30T08:28:38.637Z,16.27
2019-04-30T08:31:08.948Z,15.77
2019-04-30T08:33:40.121Z,11.80
2019-04-30T08:36:09.415Z,14.97
2019-04-30T08:38:39.428Z,15.83
2019-04-30T08:41:09.302Z,14.97
2019-04-30T08:43:39.438Z,14.73
2019-04-30T08:46:09.399Z,14.50
2019-04-30T08:48:47.910Z,12.13
2019-04-30T08:51:10.687Z,14.43
2019-04-30T08:53:41.021Z,17.53
2019-04-30T08:56:10.260Z,17.03
2019-04-30T08:58:39.214Z,14.37
2019-04-30T09:01:08.860Z,13.60
2019-04-30T09:03:39.260Z,14.83
2019-04-30T09:06:10.064Z,15.93
2019-04-30T09:08:40.048Z,18.17
2019-04-30T09:11:21.836Z,16.47
2019-04-30T09:13:39.868Z,12.17
2019-04-30T09:16:09.247Z,13.33
2019-04-30T09:18:39.975Z,15.63
2019-04-30T09:21:09.090Z,17.77
2019-04-30T09:23:47.516Z,14.30
2019-04-30T09:26:08.824Z,14.90
2019-04-30T09:28:40.730Z,15.47
2019-04-30T09:31:08.791Z,11.77
2019-04-30T09:33:39.368Z,14.17
2019-04-30T09:36:09.156Z,12.73
2019-04-30T09:38:38.903Z,15.13
2019-04-30T09:41:09.368Z,16.60
2019-04-30T09:43:40.419Z,14.10
2019-04-30T09:46:17.888Z,14.80
2019-04-30T09:48:39.689Z,15.63
2019-04-30T09:51:10.812Z,15.07
2019-04-30T09:53:39.846Z,24.63
2019-04-30T09:56:09.685Z,17.23
2019-04-30T09:58:39.367Z,17.23
2019-04-30T10:01:09.404Z,14.90
2019-04-30T10:03:39.670Z,13.30
2019-04-30T10:06:10.224Z,16.03
2019-04-30T10:08:47.945Z,14.27
2019-04-30T10:11:11.500Z,15.40
2019-04-30T10:13:40.467Z,14.60
2019-04-30T10:16:11.077Z,12.87
2019-04-30T10:18:40.009Z,14.30
2019-04-30T10:21:09.174Z,13.57
2019-04-30T10:23:39.167Z,13.27
2019-04-30T10:26:08.149Z,11.57
2019-04-30T10:28:38.672Z,11.33
2019-04-30T10:31:07.549Z,9.97
2019-04-30T10:33:38.159Z,10.67
2019-04-30T10:36:09.279Z,8.20
2019-04-30T10:38:39.379Z,9.50
2019-04-30T10:41:08.906Z,11.13
2019-04-30T10:43:39.319Z,9.93
2019-04-30T10:46:09.664Z,13.57
2019-04-30T10:48:38.751Z,13.80
2019-04-30T10:51:09.048Z,8.00
2019-04-30T10:53:38.095Z,9.20
2019-04-30T10:56:07.151Z,8.17
2019-04-30T10:58:36.141Z,7.50
2019-04-30T11:01:05.136Z,7.23
2019-04-30T11:03:34.129Z,7.53
2019-04-30T11:06:03.105Z,8.53
2019-04-30T11:08:31.992Z,7.33
2019-04-30T11:11:00.889Z,12.97
2019-04-30T11:13:29.792Z,6.30
2019-04-30T11:16:02.614Z,7.27
2019-04-30T11:18:30.628Z,6.43
2019-04-30T11:21:00.075Z,4.87
2019-04-30T11:23:29.744Z,3.47
2019-04-30T11:26:00.112Z,7.13
2019-04-30T11:28:29.869Z,5.40
2019-04-30T11:31:17.256Z,5.63
2019-04-30T11:33:46.734Z,6.60
2019-04-30T11:36:16.065Z,3.40
2019-04-30T11:38:44.968Z,5.73
2019-04-30T11:41:14.295Z,3.77
2019-04-30T11:43:43.194Z,6.20
2019-04-30T11:46:25.668Z,3.77
2019-04-30T11:48:54.821Z,5.93
2019-04-30T11:51:23.879Z,5.17
2019-04-30T11:53:53.927Z,4.07
2019-04-30T11:56:22.829Z,9.70
2019-04-30T11:58:51.721Z,5.43
2019-04-30T12:01:22.400Z,4.07
2019-04-30T12:03:51.283Z,6.90
2019-04-30T12:06:20.212Z,7.87
2019-04-30T12:08:50.736Z,3.87
2019-04-30T12:11:24.603Z,3.33
2019-04-30T12:13:53.561Z,6.07
2019-04-30T12:16:22.461Z,7.97
2019-04-30T12:18:51.352Z,5.07
2019-04-30T12:21:20.263Z,4.63
2019-04-30T12:23:49.189Z,4.50
2019-04-30T12:26:19.063Z,5.20
2019-04-30T12:28:48.142Z,6.20
2019-04-30T12:31:18.700Z,7.50
2019-04-30T12:33:47.836Z,8.27
2019-04-30T12:36:18.801Z,8.93
2019-04-30T12:38:47.381Z,8.43
2019-04-30T12:41:16.262Z,8.50
2019-04-30T12:43:45.226Z,9.23
2019-04-30T12:46:14.157Z,9.70
2019-04-30T12:48:50.685Z,6.63
2019-04-30T12:51:23.994Z,5.60
2019-04-30T12:53:54.521Z,9.60
2019-04-30T12:56:28.261Z,8.60
2019-04-30T12:58:57.152Z,10.73
2019-04-30T13:01:26.044Z,9.27
2019-04-30T13:03:58.677Z,5.20
2019-04-30T13:06:26.289Z,5.73
2019-04-30T13:08:55.936Z,9.33
2019-04-30T13:11:25.793Z,8.73
2019-04-30T13:13:56.625Z,6.77
2019-04-30T13:16:25.879Z,16.60
2019-04-30T13:18:54.809Z,5.87
2019-04-30T13:21:23.693Z,9.60
2019-04-30T13:23:52.673Z,4.83
2019-04-30T13:26:21.585Z,10.10
2019-04-30T13:29:07.000Z,7.63
2019-04-30T13:31:36.881Z,6.00
2019-04-30T13:34:10.216Z,7.30
2019-04-30T13:36:40.880Z,8.13
2019-04-30T13:39:11.481Z,6.77
2019-04-30T13:41:46.284Z,10.27
2019-04-30T13:44:16.530Z,6.60
2019-04-30T13:46:45.493Z,12.13
2019-04-30T13:49:14.463Z,5.70
2019-04-30T13:51:43.363Z,7.73
2019-04-30T13:54:12.248Z,6.50
2019-04-30T13:56:41.201Z,5.50
2019-04-30T13:59:10.073Z,7.20
2019-04-30T14:01:39.148Z,5.90
2019-04-30T14:04:26.485Z,6.30
2019-04-30T14:07:12.248Z,5.30
2019-04-30T14:09:41.408Z,5.20
2019-04-30T14:12:10.313Z,6.43
2019-04-30T14:14:39.578Z,10.83
2019-04-30T14:17:09.258Z,9.07
2019-04-30T14:19:38.434Z,6.90
2019-04-30T14:22:08.965Z,5.80
2019-04-30T14:24:38.080Z,14.13
2019-04-30T14:27:08.990Z,12.17
2019-04-30T14:29:39.566Z,7.13
2019-04-30T14:32:08.765Z,10.83
2019-04-30T14:34:39.456Z,7.57
2019-04-30T14:37:08.318Z,7.67
2019-04-30T14:39:37.602Z,10.43
2019-04-30T14:42:09.891Z,11.47
2019-04-30T14:44:39.908Z,10.90
2019-04-30T14:47:12.136Z,9.03
2019-04-30T14:50:02.616Z,8.83
2019-04-30T14:52:30.727Z,10.93
2019-04-30T14:55:19.199Z,9.90
2019-04-30T14:57:51.313Z,9.60
2019-04-30T15:00:32.112Z,10.40
2019-04-30T15:03:14.605Z,13.13
2019-04-30T15:05:48.824Z,8.60
2019-04-30T15:08:14.248Z,10.90
2019-04-30T15:10:43.276Z,12.07
2019-04-30T15:13:12.259Z,10.27
2019-04-30T15:15:41.190Z,11.00
2019-04-30T15:18:10.161Z,11.43
2019-04-30T15:20:39.770Z,11.83
2019-04-30T15:23:19.017Z,8.70
2019-04-30T15:25:48.669Z,10.40
2019-04-30T15:28:17.726Z,9.37
2019-04-30T15:30:48.688Z,8.67
2019-04-30T15:33:27.548Z,8.33
2019-04-30T15:35:56.477Z,11.10
2019-04-30T15:38:27.097Z,7.97
2019-04-30T15:40:56.035Z,10.07
2019-04-30T15:43:24.993Z,8.03
2019-04-30T15:45:53.885Z,10.03
2019-04-30T15:48:24.814Z,9.33
2019-04-30T15:50:53.531Z,8.43
2019-04-30T15:53:22.519Z,12.23
2019-04-30T15:55:51.403Z,7.37
2019-04-30T15:58:22.014Z,9.73
2019-04-30T16:00:50.987Z,9.00
2019-04-30T16:03:24.687Z,9.23
2019-04-30T16:05:56.821Z,11.00
2019-04-30T16:08:29.084Z,10.87
2019-04-30T16:11:11.992Z,8.50
2019-04-30T16:13:49.518Z,10.40
2019-04-30T16:16:19.644Z,9.73
2019-04-30T16:18:49.792Z,9.73
2019-04-30T16:21:19.360Z,10.37
2019-04-30T16:23:49.095Z,10.33
2019-04-30T16:26:18.131Z,15.20
2019-04-30T16:28:49.058Z,11.23
2019-04-30T16:31:20.300Z,10.97
2019-04-30T16:33:49.236Z,10.27
2019-04-30T16:36:19.303Z,11.07
2019-04-30T16:38:48.782Z,10.70
2019-04-30T16:41:30.395Z,10.27
2019-04-30T16:43:48.808Z,12.50
2019-04-30T16:46:18.347Z,11.90
2019-04-30T16:48:49.306Z,10.57
2019-04-30T16:51:18.775Z,10.27
2019-04-30T16:53:48.694Z,12.67
2019-04-30T16:56:18.581Z,11.87
2019-04-30T16:59:01.322Z,10.70
2019-04-30T17:01:31.352Z,9.17
2019-04-30T17:04:09.106Z,10.27
2019-04-30T17:06:39.709Z,11.47
2019-04-30T17:09:13.299Z,11.67
2019-04-30T17:11:59.495Z,8.00
2019-04-30T17:14:30.753Z,8.80
2019-04-30T17:16:59.835Z,10.97
2019-04-30T17:19:29.357Z,10.67
2019-04-30T17:21:58.341Z,11.70
2019-04-30T17:24:27.234Z,11.93
2019-04-30T17:26:56.132Z,10.13
2019-04-30T17:29:25.148Z,13.23
2019-04-30T17:31:54.037Z,10.83
2019-04-30T17:34:22.960Z,12.23
2019-04-30T17:36:51.924Z,11.27
2019-04-30T17:39:21.332Z,10.80
2019-04-30T17:41:50.716Z,11.30
2019-04-30T17:44:19.737Z,13.70
2019-04-30T17:46:50.209Z,9.80
2019-04-30T17:49:19.533Z,9.13
2019-04-30T17:51:49.484Z,11.27
2019-04-30T17:54:18.377Z,10.97
2019-04-30T17:56:47.308Z,13.07
2019-04-30T17:59:16.209Z,10.57
2019-04-30T18:01:46.820Z,10.20
2019-04-30T18:04:15.740Z,8.80
2019-04-30T18:06:44.711Z,11.10
2019-04-30T18:09:14.019Z,10.60
2019-04-30T18:11:42.933Z,11.80
2019-04-30T18:14:11.907Z,11.77
2019-04-30T18:16:40.864Z,10.53
2019-04-30T18:19:19.997Z,11.87
2019-04-30T18:21:56.523Z,10.53
2019-04-30T18:24:36.504Z,10.60
2019-04-30T18:27:13.146Z,13.17
2019-04-30T18:29:42.128Z,13.77
2019-04-30T18:32:11.195Z,10.17
2019-04-30T18:34:40.263Z,8.50
2019-04-30T18:37:09.279Z,9.93
2019-04-30T18:39:38.173Z,10.00
2019-04-30T18:42:10.851Z,13.97
2019-04-30T18:44:37.904Z,11.77
2019-04-30T18:47:08.901Z,10.50
2019-04-30T18:49:39.380Z,11.90
2019-04-30T18:52:09.096Z,9.27
2019-04-30T18:54:39.713Z,11.97
2019-04-30T18:57:09.914Z,10.80
2019-04-30T18:59:38.951Z,16.00
2019-04-30T19:02:09.858Z,14.43
2019-04-30T19:04:40.745Z,14.10
2019-04-30T19:07:11.103Z,12.23
2019-04-30T19:09:58.880Z,10.67
2019-04-30T19:12:35.722Z,13.03
2019-04-30T19:15:13.149Z,16.73
2019-04-30T19:17:43.794Z,15.97
2019-04-30T19:20:20.023Z,11.73
2019-04-30T19:22:49.190Z,14.77
2019-04-30T19:25:19.092Z,12.43
2019-04-30T19:27:48.129Z,14.17
2019-04-30T19:30:19.125Z,10.57
2019-04-30T19:32:49.151Z,13.90
2019-04-30T19:35:18.783Z,13.30
2019-04-30T19:37:48.723Z,16.40
2019-04-30T19:40:19.004Z,17.90
2019-04-30T19:42:50.927Z,15.97
2019-04-30T19:45:20.043Z,14.40
2019-04-30T19:47:49.305Z,13.87
2019-04-30T19:50:19.257Z,11.30
2019-04-30T19:52:48.425Z,14.97
2019-04-30T19:55:20.458Z,14.77
2019-04-30T19:57:50.916Z,13.63
2019-04-30T20:00:19.300Z,14.20
2019-04-30T20:02:48.735Z,11.87
2019-04-30T20:05:19.411Z,13.40
2019-04-30T20:07:49.359Z,11.70
2019-04-30T20:10:19.598Z,10.87
2019-04-30T20:12:49.695Z,14.70
2019-04-30T20:15:21.763Z,13.60
2019-04-30T20:17:49.988Z,14.23
2019-04-30T20:20:19.030Z,13.73
2019-04-30T20:22:48.028Z,11.67
2019-04-30T20:25:18.962Z,10.77
2019-04-30T20:27:49.483Z,12.27
2019-04-30T20:30:19.552Z,13.70
2019-04-30T20:32:49.077Z,12.23
2019-04-30T20:35:19.263Z,11.33
2019-04-30T20:38:06.471Z,12.73
2019-04-30T20:40:43.421Z,11.40
2019-04-30T20:43:08.464Z,14.53
2019-04-30T20:45:37.444Z,10.13
2019-04-30T20:48:06.424Z,8.67
2019-04-30T20:50:35.372Z,12.37
2019-04-30T20:53:04.473Z,14.57
2019-04-30T20:55:33.380Z,12.43
2019-04-30T20:58:02.300Z,15.00
2019-04-30T21:00:32.360Z,11.67
2019-04-30T21:03:01.433Z,13.40
2019-04-30T21:05:30.359Z,13.00
2019-04-30T21:07:59.342Z,12.10
2019-04-30T21:10:29.839Z,13.80
2019-04-30T21:12:58.894Z,15.90
2019-04-30T21:15:29.771Z,16.70
2019-04-30T21:17:58.776Z,14.53
2019-04-30T21:20:29.022Z,20.17
2019-04-30T21:22:59.658Z,20.73
2019-04-30T21:25:29.230Z,16.07
2019-04-30T21:28:00.095Z,14.23
2019-04-30T21:30:29.157Z,17.80
2019-04-30T21:32:59.699Z,11.40
2019-04-30T21:35:39.111Z,16.67
2019-04-30T21:38:09.410Z,17.07
2019-04-30T21:40:39.469Z,17.20
2019-04-30T21:43:08.643Z,16.40
2019-04-30T21:45:39.698Z,15.67
2019-04-30T21:48:09.150Z,18.83
2019-04-30T21:50:39.698Z,12.00
2019-04-30T21:53:09.893Z,18.77
2019-04-30T21:55:39.849Z,10.43
2019-04-30T21:58:09.583Z,10.63
2019-04-30T22:00:40.394Z,8.90
2019-04-30T22:03:11.039Z,9.27
2019-04-30T22:05:40.053Z,9.57
2019-04-30T22:08:09.255Z,13.03
2019-04-30T22:10:38.209Z,11.00
2019-04-30T22:13:08.890Z,12.93
2019-04-30T22:15:37.951Z,17.67
2019-04-30T22:18:06.867Z,13.93
2019-04-30T22:20:35.771Z,13.90
2019-04-30T22:23:04.740Z,19.77
2019-04-30T22:25:33.651Z,12.17
2019-04-30T22:28:02.545Z,11.03
2019-04-30T22:30:31.507Z,9.00
2019-04-30T22:33:00.403Z,7.90
2019-04-30T22:35:30.946Z,11.73
2019-04-30T22:38:10.219Z,10.37
2019-04-30T22:40:39.354Z,8.97
2019-04-30T22:43:09.313Z,14.73
2019-04-30T22:45:40.470Z,11.73
2019-04-30T22:48:09.609Z,10.40
2019-04-30T22:50:38.502Z,14.80
2019-04-30T22:53:07.434Z,12.07
2019-04-30T22:55:36.396Z,11.97
2019-04-30T22:58:05.285Z,13.37
2019-04-30T23:00:45.128Z,11.13
2019-04-30T23:03:15.671Z,12.10
2019-04-30T23:05:44.566Z,18.87
2019-04-30T23:08:13.494Z,14.77
2019-04-30T23:10:42.397Z,13.70
2019-04-30T23:13:11.376Z,13.90
2019-04-30T23:15:40.384Z,15.23
2019-04-30T23:18:09.300Z,14.37
2019-04-30T23:20:38.193Z,15.17
2019-04-30T23:23:07.117Z,15.87
2019-04-30T23:25:36.025Z,15.93
2019-04-30T23:28:04.988Z,14.70
2019-04-30T23:30:33.910Z,14.77
2019-04-30T23:33:02.817Z,14.57
2019-04-30T23:35:32.929Z,15.63
2019-04-30T23:38:02.971Z,14.87
2019-04-30T23:40:42.292Z,15.80
2019-04-30T23:43:11.184Z,20.10
2019-04-30T23:45:40.173Z,14.87
2019-04-30T23:48:09.094Z,16.80
2019-04-30T23:50:38.084Z,18.97
2019-04-30T23:53:08.051Z,15.80
2019-04-30T23:55:37.022Z,16.13
2019-04-30T23:58:06.207Z,19.10
